sensor_id;sensor_type;location;lat;lon;timestamp;P1;durP1;ratioP1;P2;durP2;ratioP2
35380;SDS011;21486;51.916;8.378;2023-08-08T00:01:18;7.87;;;4.57;;
35380;SDS011;21486;51.916;8.378;2023-08-08T00:03:44;9.30;;;4.03;;
35380;SDS011;21486;51.916;8.378;2023-08-08T00:06:09;10.68;;;3.75;;
35380;SDS011;21486;51.916;8.378;2023-08-08T00:08:35;10.40;;;3.97;;
35380;SDS011;21486;51.916;8.378;2023-08-08T00:11:01;8.63;;;4.10;;
35380;SDS011;21486;51.916;8.378;2023-08-08T00:13:26;8.87;;;3.83;;
35380;SDS011;21486;51.916;8.378;2023-08-08T00:15:52;6.40;;;3.50;;
35380;SDS011;21486;51.916;8.378;2023-08-08T00:18:17;6.72;;;3.33;;
35380;SDS011;21486;51.916;8.378;2023-08-08T00:20:43;10.53;;;3.40;;
35380;SDS011;21486;51.916;8.378;2023-08-08T00:23:09;7.53;;;3.60;;
35380;SDS011;21486;51.916;8.378;2023-08-08T00:25:35;8.35;;;3.40;;
35380;SDS011;21486;51.916;8.378;2023-08-08T00:28:02;8.67;;;3.60;;
35380;SDS011;21486;51.916;8.378;2023-08-08T00:33:03;7.40;;;4.00;;
35380;SDS011;21486;51.916;8.378;2023-08-08T00:35:29;7.60;;;3.72;;
35380;SDS011;21486;51.916;8.378;2023-08-08T00:37:55;6.13;;;3.53;;
35380;SDS011;21486;51.916;8.378;2023-08-08T00:40:20;6.78;;;3.70;;
35380;SDS011;21486;51.916;8.378;2023-08-08T00:42:46;10.73;;;4.03;;
35380;SDS011;21486;51.916;8.378;2023-08-08T00:45:11;10.27;;;4.57;;
35380;SDS011;21486;51.916;8.378;2023-08-08T00:47:37;9.38;;;4.40;;
35380;SDS011;21486;51.916;8.378;2023-08-08T00:50:02;6.80;;;3.87;;
35380;SDS011;21486;51.916;8.378;2023-08-08T00:52:29;8.45;;;4.20;;
35380;SDS011;21486;51.916;8.378;2023-08-08T00:54:55;8.02;;;3.97;;
35380;SDS011;21486;51.916;8.378;2023-08-08T00:57:20;9.82;;;4.30;;
35380;SDS011;21486;51.916;8.378;2023-08-08T00:59:46;8.00;;;4.70;;
35380;SDS011;21486;51.916;8.378;2023-08-08T01:02:12;9.87;;;4.13;;
35380;SDS011;21486;51.916;8.378;2023-08-08T01:04:37;10.60;;;4.33;;
35380;SDS011;21486;51.916;8.378;2023-08-08T01:10:32;9.98;;;4.13;;
35380;SDS011;21486;51.916;8.378;2023-08-08T01:13:02;11.30;;;3.78;;
35380;SDS011;21486;51.916;8.378;2023-08-08T01:15:38;9.82;;;3.67;;
35380;SDS011;21486;51.916;8.378;2023-08-08T01:18:04;9.65;;;3.92;;
35380;SDS011;21486;51.916;8.378;2023-08-08T01:20:32;5.33;;;3.53;;
35380;SDS011;21486;51.916;8.378;2023-08-08T01:23:03;7.43;;;3.30;;
35380;SDS011;21486;51.916;8.378;2023-08-08T01:25:39;9.33;;;3.40;;
35380;SDS011;21486;51.916;8.378;2023-08-08T01:28:05;7.05;;;3.60;;
35380;SDS011;21486;51.916;8.378;2023-08-08T01:30:32;6.13;;;3.15;;
35380;SDS011;21486;51.916;8.378;2023-08-08T01:32:57;7.68;;;3.15;;
35380;SDS011;21486;51.916;8.378;2023-08-08T01:35:23;7.33;;;3.00;;
35380;SDS011;21486;51.916;8.378;2023-08-08T01:37:54;5.93;;;3.03;;
35380;SDS011;21486;51.916;8.378;2023-08-08T01:40:26;7.88;;;3.15;;
35380;SDS011;21486;51.916;8.378;2023-08-08T01:42:54;8.90;;;3.30;;
35380;SDS011;21486;51.916;8.378;2023-08-08T01:45:20;7.45;;;2.70;;
35380;SDS011;21486;51.916;8.378;2023-08-08T01:47:50;4.93;;;2.72;;
35380;SDS011;21486;51.916;8.378;2023-08-08T01:50:16;5.47;;;3.10;;
35380;SDS011;21486;51.916;8.378;2023-08-08T01:52:41;4.18;;;2.50;;
35380;SDS011;21486;51.916;8.378;2023-08-08T01:55:07;6.55;;;2.55;;
35380;SDS011;21486;51.916;8.378;2023-08-08T01:57:33;4.70;;;2.63;;
35380;SDS011;21486;51.916;8.378;2023-08-08T01:59:59;5.07;;;2.60;;
35380;SDS011;21486;51.916;8.378;2023-08-08T02:02:24;6.72;;;2.70;;
35380;SDS011;21486;51.916;8.378;2023-08-08T02:04:50;4.23;;;2.60;;
35380;SDS011;21486;51.916;8.378;2023-08-08T02:07:15;6.77;;;2.70;;
35380;SDS011;21486;51.916;8.378;2023-08-08T02:09:41;4.38;;;2.72;;
35380;SDS011;21486;51.916;8.378;2023-08-08T02:12:07;6.20;;;2.83;;
35380;SDS011;21486;51.916;8.378;2023-08-08T02:14:32;6.20;;;2.67;;
35380;SDS011;21486;51.916;8.378;2023-08-08T02:16:58;5.53;;;3.03;;
35380;SDS011;21486;51.916;8.378;2023-08-08T02:19:23;4.40;;;2.60;;
35380;SDS011;21486;51.916;8.378;2023-08-08T02:21:49;5.57;;;2.83;;
35380;SDS011;21486;51.916;8.378;2023-08-08T02:24:14;7.17;;;2.80;;
35380;SDS011;21486;51.916;8.378;2023-08-08T02:26:40;5.72;;;2.40;;
35380;SDS011;21486;51.916;8.378;2023-08-08T02:29:05;7.43;;;2.70;;
35380;SDS011;21486;51.916;8.378;2023-08-08T02:31:31;4.23;;;2.77;;
35380;SDS011;21486;51.916;8.378;2023-08-08T02:33:56;4.97;;;2.42;;
35380;SDS011;21486;51.916;8.378;2023-08-08T02:36:22;4.90;;;2.60;;
35380;SDS011;21486;51.916;8.378;2023-08-08T02:38:47;6.17;;;2.43;;
35380;SDS011;21486;51.916;8.378;2023-08-08T02:41:14;6.55;;;2.50;;
35380;SDS011;21486;51.916;8.378;2023-08-08T02:43:40;3.90;;;2.33;;
35380;SDS011;21486;51.916;8.378;2023-08-08T02:46:06;5.13;;;2.50;;
35380;SDS011;21486;51.916;8.378;2023-08-08T02:48:31;4.90;;;2.40;;
35380;SDS011;21486;51.916;8.378;2023-08-08T02:50:57;3.73;;;2.40;;
35380;SDS011;21486;51.916;8.378;2023-08-08T02:53:22;5.90;;;2.60;;
35380;SDS011;21486;51.916;8.378;2023-08-08T02:55:48;4.10;;;2.55;;
35380;SDS011;21486;51.916;8.378;2023-08-08T02:58:14;4.33;;;2.60;;
35380;SDS011;21486;51.916;8.378;2023-08-08T03:00:39;5.33;;;2.77;;
35380;SDS011;21486;51.916;8.378;2023-08-08T03:03:05;4.63;;;2.60;;
35380;SDS011;21486;51.916;8.378;2023-08-08T03:05:30;4.50;;;3.00;;
35380;SDS011;21486;51.916;8.378;2023-08-08T03:07:56;5.40;;;3.10;;
35380;SDS011;21486;51.916;8.378;2023-08-08T03:10:21;7.03;;;3.30;;
35380;SDS011;21486;51.916;8.378;2023-08-08T03:12:48;7.72;;;3.83;;
35380;SDS011;21486;51.916;8.378;2023-08-08T03:15:13;5.40;;;3.40;;
35380;SDS011;21486;51.916;8.378;2023-08-08T03:17:39;7.00;;;4.20;;
35380;SDS011;21486;51.916;8.378;2023-08-08T03:20:05;8.77;;;4.63;;
35380;SDS011;21486;51.916;8.378;2023-08-08T03:22:31;7.47;;;4.68;;
35380;SDS011;21486;51.916;8.378;2023-08-08T03:24:57;7.70;;;4.53;;
35380;SDS011;21486;51.916;8.378;2023-08-08T03:27:23;10.23;;;5.43;;
35380;SDS011;21486;51.916;8.378;2023-08-08T03:29:50;10.37;;;5.20;;
35380;SDS011;21486;51.916;8.378;2023-08-08T03:32:16;8.50;;;5.13;;
35380;SDS011;21486;51.916;8.378;2023-08-08T03:34:41;10.00;;;5.70;;
35380;SDS011;21486;51.916;8.378;2023-08-08T03:37:07;11.13;;;5.50;;
35380;SDS011;21486;51.916;8.378;2023-08-08T03:39:32;10.93;;;5.70;;
35380;SDS011;21486;51.916;8.378;2023-08-08T03:41:58;8.25;;;5.20;;
35380;SDS011;21486;51.916;8.378;2023-08-08T03:44:23;8.37;;;5.10;;
35380;SDS011;21486;51.916;8.378;2023-08-08T03:46:49;10.67;;;5.10;;
35380;SDS011;21486;51.916;8.378;2023-08-08T03:49:15;11.15;;;5.63;;
35380;SDS011;21486;51.916;8.378;2023-08-08T03:51:41;12.20;;;5.57;;
35380;SDS011;21486;51.916;8.378;2023-08-08T03:54:06;10.93;;;5.10;;
35380;SDS011;21486;51.916;8.378;2023-08-08T03:56:32;12.52;;;5.65;;
35380;SDS011;21486;51.916;8.378;2023-08-08T03:58:57;9.90;;;5.63;;
35380;SDS011;21486;51.916;8.378;2023-08-08T04:01:23;11.27;;;5.63;;
35380;SDS011;21486;51.916;8.378;2023-08-08T04:03:49;10.60;;;5.32;;
35380;SDS011;21486;51.916;8.378;2023-08-08T04:06:14;11.35;;;6.35;;
35380;SDS011;21486;51.916;8.378;2023-08-08T04:08:40;11.53;;;6.30;;
35380;SDS011;21486;51.916;8.378;2023-08-08T04:11:05;12.32;;;6.25;;
35380;SDS011;21486;51.916;8.378;2023-08-08T04:13:31;12.82;;;6.68;;
35380;SDS011;21486;51.916;8.378;2023-08-08T04:15:56;12.97;;;6.10;;
35380;SDS011;21486;51.916;8.378;2023-08-08T04:18:22;9.67;;;5.60;;
35380;SDS011;21486;51.916;8.378;2023-08-08T04:20:47;15.43;;;5.90;;
35380;SDS011;21486;51.916;8.378;2023-08-08T04:23:13;12.97;;;6.27;;
35380;SDS011;21486;51.916;8.378;2023-08-08T04:25:39;15.50;;;6.60;;
35380;SDS011;21486;51.916;8.378;2023-08-08T04:28:04;11.60;;;5.67;;
35380;SDS011;21486;51.916;8.378;2023-08-08T04:30:30;10.23;;;5.70;;
35380;SDS011;21486;51.916;8.378;2023-08-08T04:32:56;13.20;;;5.83;;
35380;SDS011;21486;51.916;8.378;2023-08-08T04:35:21;13.30;;;5.90;;
35380;SDS011;21486;51.916;8.378;2023-08-08T04:37:47;11.32;;;6.07;;
35380;SDS011;21486;51.916;8.378;2023-08-08T04:40:12;11.30;;;6.47;;
35380;SDS011;21486;51.916;8.378;2023-08-08T04:42:38;9.90;;;5.47;;
35380;SDS011;21486;51.916;8.378;2023-08-08T04:45:04;13.77;;;6.50;;
35380;SDS011;21486;51.916;8.378;2023-08-08T04:47:30;13.00;;;5.63;;
35380;SDS011;21486;51.916;8.378;2023-08-08T04:49:55;10.03;;;5.63;;
35380;SDS011;21486;51.916;8.378;2023-08-08T04:52:21;11.10;;;5.13;;
35380;SDS011;21486;51.916;8.378;2023-08-08T04:54:47;8.85;;;5.18;;
35380;SDS011;21486;51.916;8.378;2023-08-08T04:57:12;12.00;;;5.53;;
35380;SDS011;21486;51.916;8.378;2023-08-08T04:59:38;9.83;;;5.43;;
35380;SDS011;21486;51.916;8.378;2023-08-08T05:02:03;12.25;;;5.70;;
35380;SDS011;21486;51.916;8.378;2023-08-08T05:04:29;13.20;;;5.82;;
35380;SDS011;21486;51.916;8.378;2023-08-08T05:06:55;13.43;;;5.13;;
35380;SDS011;21486;51.916;8.378;2023-08-08T05:09:22;11.60;;;5.28;;
35380;SDS011;21486;51.916;8.378;2023-08-08T05:11:51;11.43;;;5.18;;
35380;SDS011;21486;51.916;8.378;2023-08-08T05:14:17;11.40;;;5.15;;
35380;SDS011;21486;51.916;8.378;2023-08-08T05:16:43;9.87;;;5.40;;
35380;SDS011;21486;51.916;8.378;2023-08-08T05:19:08;10.95;;;4.70;;
35380;SDS011;21486;51.916;8.378;2023-08-08T05:21:34;11.02;;;4.60;;
35380;SDS011;21486;51.916;8.378;2023-08-08T05:24:00;9.40;;;4.70;;
35380;SDS011;21486;51.916;8.378;2023-08-08T05:26:25;13.87;;;5.10;;
35380;SDS011;21486;51.916;8.378;2023-08-08T05:28:51;10.00;;;4.80;;
35380;SDS011;21486;51.916;8.378;2023-08-08T05:31:16;10.00;;;4.80;;
35380;SDS011;21486;51.916;8.378;2023-08-08T05:33:42;13.07;;;4.90;;
35380;SDS011;21486;51.916;8.378;2023-08-08T05:36:07;16.97;;;5.63;;
35380;SDS011;21486;51.916;8.378;2023-08-08T05:38:33;11.20;;;4.57;;
35380;SDS011;21486;51.916;8.378;2023-08-08T05:40:58;12.53;;;4.60;;
35380;SDS011;21486;51.916;8.378;2023-08-08T05:43:24;10.03;;;5.30;;
35380;SDS011;21486;51.916;8.378;2023-08-08T05:45:49;8.93;;;4.80;;
35380;SDS011;21486;51.916;8.378;2023-08-08T05:48:15;10.73;;;4.70;;
35380;SDS011;21486;51.916;8.378;2023-08-08T05:50:40;11.88;;;5.00;;
35380;SDS011;21486;51.916;8.378;2023-08-08T05:53:06;12.07;;;4.80;;
35380;SDS011;21486;51.916;8.378;2023-08-08T05:55:32;12.63;;;5.23;;
35380;SDS011;21486;51.916;8.378;2023-08-08T05:57:57;12.07;;;5.00;;
35380;SDS011;21486;51.916;8.378;2023-08-08T06:00:23;15.85;;;4.90;;
35380;SDS011;21486;51.916;8.378;2023-08-08T06:02:48;11.20;;;4.97;;
35380;SDS011;21486;51.916;8.378;2023-08-08T06:05:15;13.17;;;4.90;;
35380;SDS011;21486;51.916;8.378;2023-08-08T06:07:41;12.70;;;5.03;;
35380;SDS011;21486;51.916;8.378;2023-08-08T06:10:07;10.83;;;5.03;;
35380;SDS011;21486;51.916;8.378;2023-08-08T06:12:33;11.20;;;4.78;;
35380;SDS011;21486;51.916;8.378;2023-08-08T06:14:59;10.27;;;5.53;;
35380;SDS011;21486;51.916;8.378;2023-08-08T06:17:24;10.73;;;6.00;;
35380;SDS011;21486;51.916;8.378;2023-08-08T06:19:50;11.63;;;6.20;;
35380;SDS011;21486;51.916;8.378;2023-08-08T06:22:15;16.83;;;7.30;;
35380;SDS011;21486;51.916;8.378;2023-08-08T06:24:41;11.70;;;6.93;;
35380;SDS011;21486;51.916;8.378;2023-08-08T06:27:07;13.80;;;7.67;;
35380;SDS011;21486;51.916;8.378;2023-08-08T06:29:32;14.48;;;7.68;;
35380;SDS011;21486;51.916;8.378;2023-08-08T06:31:58;15.32;;;8.20;;
35380;SDS011;21486;51.916;8.378;2023-08-08T06:34:24;14.43;;;8.70;;
35380;SDS011;21486;51.916;8.378;2023-08-08T06:36:49;17.87;;;10.53;;
35380;SDS011;21486;51.916;8.378;2023-08-08T06:39:15;18.52;;;10.15;;
35380;SDS011;21486;51.916;8.378;2023-08-08T06:41:40;20.47;;;10.57;;
35380;SDS011;21486;51.916;8.378;2023-08-08T06:44:07;18.70;;;10.77;;
35380;SDS011;21486;51.916;8.378;2023-08-08T06:46:33;21.23;;;11.45;;
35380;SDS011;21486;51.916;8.378;2023-08-08T06:48:58;18.27;;;10.38;;
35380;SDS011;21486;51.916;8.378;2023-08-08T06:51:26;20.48;;;11.65;;
35380;SDS011;21486;51.916;8.378;2023-08-08T06:53:51;19.73;;;11.43;;
35380;SDS011;21486;51.916;8.378;2023-08-08T06:56:17;22.23;;;12.48;;
35380;SDS011;21486;51.916;8.378;2023-08-08T06:58:43;21.98;;;11.70;;
35380;SDS011;21486;51.916;8.378;2023-08-08T07:03:35;24.23;;;11.57;;
35380;SDS011;21486;51.916;8.378;2023-08-08T07:06:02;20.37;;;12.10;;
35380;SDS011;21486;51.916;8.378;2023-08-08T07:08:28;20.25;;;12.57;;
35380;SDS011;21486;51.916;8.378;2023-08-08T07:10:54;21.67;;;12.60;;
35380;SDS011;21486;51.916;8.378;2023-08-08T07:13:21;26.35;;;13.40;;
35380;SDS011;21486;51.916;8.378;2023-08-08T07:15:47;23.05;;;12.90;;
35380;SDS011;21486;51.916;8.378;2023-08-08T07:18:13;22.57;;;13.23;;
35380;SDS011;21486;51.916;8.378;2023-08-08T07:20:39;24.30;;;13.70;;
35380;SDS011;21486;51.916;8.378;2023-08-08T07:23:04;19.60;;;13.20;;
35380;SDS011;21486;51.916;8.378;2023-08-08T07:25:30;24.88;;;13.77;;
35380;SDS011;21486;51.916;8.378;2023-08-08T07:27:55;22.80;;;13.73;;
35380;SDS011;21486;51.916;8.378;2023-08-08T07:30:21;25.60;;;14.60;;
35380;SDS011;21486;51.916;8.378;2023-08-08T07:32:47;28.00;;;14.95;;
35380;SDS011;21486;51.916;8.378;2023-08-08T07:35:12;22.10;;;14.65;;
35380;SDS011;21486;51.916;8.378;2023-08-08T07:37:40;25.38;;;14.88;;
35380;SDS011;21486;51.916;8.378;2023-08-08T07:40:17;26.58;;;14.82;;
35380;SDS011;21486;51.916;8.378;2023-08-08T07:42:45;27.77;;;16.13;;
35380;SDS011;21486;51.916;8.378;2023-08-08T07:45:12;25.38;;;15.73;;
35380;SDS011;21486;51.916;8.378;2023-08-08T07:47:37;26.13;;;15.20;;
35380;SDS011;21486;51.916;8.378;2023-08-08T07:50:03;25.27;;;16.55;;
35380;SDS011;21486;51.916;8.378;2023-08-08T07:52:29;31.40;;;17.73;;
35380;SDS011;21486;51.916;8.378;2023-08-08T07:54:55;30.17;;;17.33;;
35380;SDS011;21486;51.916;8.378;2023-08-08T07:57:20;27.17;;;16.30;;
35380;SDS011;21486;51.916;8.378;2023-08-08T07:59:46;27.10;;;17.43;;
35380;SDS011;21486;51.916;8.378;2023-08-08T08:02:11;25.85;;;16.02;;
35380;SDS011;21486;51.916;8.378;2023-08-08T08:04:37;28.20;;;15.47;;
35380;SDS011;21486;51.916;8.378;2023-08-08T08:07:03;27.37;;;15.27;;
35380;SDS011;21486;51.916;8.378;2023-08-08T08:09:28;23.17;;;14.52;;
35380;SDS011;21486;51.916;8.378;2023-08-08T08:11:54;28.90;;;16.10;;
35380;SDS011;21486;51.916;8.378;2023-08-08T08:14:20;21.27;;;13.60;;
35380;SDS011;21486;51.916;8.378;2023-08-08T08:16:47;24.40;;;15.68;;
35380;SDS011;21486;51.916;8.378;2023-08-08T08:19:13;23.00;;;13.32;;
35380;SDS011;21486;51.916;8.378;2023-08-08T08:21:38;21.00;;;14.05;;
35380;SDS011;21486;51.916;8.378;2023-08-08T08:24:04;27.33;;;15.70;;
35380;SDS011;21486;51.916;8.378;2023-08-08T08:26:30;26.88;;;14.48;;
35380;SDS011;21486;51.916;8.378;2023-08-08T08:28:57;28.23;;;15.20;;
35380;SDS011;21486;51.916;8.378;2023-08-08T08:31:22;26.23;;;13.95;;
35380;SDS011;21486;51.916;8.378;2023-08-08T08:33:48;25.50;;;14.63;;
35380;SDS011;21486;51.916;8.378;2023-08-08T08:36:14;20.87;;;13.83;;
35380;SDS011;21486;51.916;8.378;2023-08-08T08:38:39;22.87;;;14.17;;
35380;SDS011;21486;51.916;8.378;2023-08-08T08:41:05;29.15;;;15.35;;
35380;SDS011;21486;51.916;8.378;2023-08-08T08:43:31;31.27;;;16.40;;
35380;SDS011;21486;51.916;8.378;2023-08-08T08:45:56;26.60;;;15.18;;
35380;SDS011;21486;51.916;8.378;2023-08-08T08:48:27;27.00;;;15.40;;
35380;SDS011;21486;51.916;8.378;2023-08-08T08:50:53;28.75;;;15.02;;
35380;SDS011;21486;51.916;8.378;2023-08-08T08:53:19;24.90;;;14.63;;
35380;SDS011;21486;51.916;8.378;2023-08-08T08:55:47;28.58;;;15.40;;
35380;SDS011;21486;51.916;8.378;2023-08-08T08:58:15;25.43;;;15.10;;
35380;SDS011;21486;51.916;8.378;2023-08-08T09:00:44;24.90;;;13.80;;
35380;SDS011;21486;51.916;8.378;2023-08-08T09:03:11;22.55;;;12.50;;
35380;SDS011;21486;51.916;8.378;2023-08-08T09:05:37;24.95;;;13.88;;
35380;SDS011;21486;51.916;8.378;2023-08-08T09:08:06;22.83;;;13.35;;
35380;SDS011;21486;51.916;8.378;2023-08-08T09:10:33;21.13;;;13.05;;
35380;SDS011;21486;51.916;8.378;2023-08-08T09:13:00;29.02;;;13.52;;
35380;SDS011;21486;51.916;8.378;2023-08-08T09:15:29;21.20;;;13.43;;
35380;SDS011;21486;51.916;8.378;2023-08-08T09:17:58;25.35;;;15.32;;
35380;SDS011;21486;51.916;8.378;2023-08-08T09:20:25;23.92;;;15.43;;
35380;SDS011;21486;51.916;8.378;2023-08-08T09:22:54;29.63;;;17.02;;
35380;SDS011;21486;51.916;8.378;2023-08-08T09:25:20;24.15;;;15.45;;
35380;SDS011;21486;51.916;8.378;2023-08-08T09:27:46;29.25;;;15.60;;
35380;SDS011;21486;51.916;8.378;2023-08-08T09:30:12;26.17;;;15.82;;
35380;SDS011;21486;51.916;8.378;2023-08-08T09:32:38;19.25;;;12.90;;
35380;SDS011;21486;51.916;8.378;2023-08-08T09:35:04;18.63;;;11.23;;
35380;SDS011;21486;51.916;8.378;2023-08-08T09:37:32;15.90;;;9.38;;
35380;SDS011;21486;51.916;8.378;2023-08-08T09:40:03;16.70;;;9.40;;
35380;SDS011;21486;51.916;8.378;2023-08-08T09:42:30;13.38;;;7.75;;
35380;SDS011;21486;51.916;8.378;2023-08-08T09:44:56;11.63;;;6.93;;
35380;SDS011;21486;51.916;8.378;2023-08-08T09:47:22;13.37;;;6.00;;
35380;SDS011;21486;51.916;8.378;2023-08-08T09:49:49;7.88;;;4.90;;
35380;SDS011;21486;51.916;8.378;2023-08-08T09:52:15;10.38;;;4.53;;
35380;SDS011;21486;51.916;8.378;2023-08-08T09:54:41;7.75;;;3.75;;
35380;SDS011;21486;51.916;8.378;2023-08-08T09:57:07;8.75;;;3.53;;
35380;SDS011;21486;51.916;8.378;2023-08-08T09:59:33;6.80;;;3.20;;
35380;SDS011;21486;51.916;8.378;2023-08-08T10:02:00;6.60;;;3.00;;
35380;SDS011;21486;51.916;8.378;2023-08-08T10:04:26;7.03;;;2.58;;
35380;SDS011;21486;51.916;8.378;2023-08-08T10:06:52;6.23;;;2.57;;
35380;SDS011;21486;51.916;8.378;2023-08-08T10:09:18;5.43;;;2.53;;
35380;SDS011;21486;51.916;8.378;2023-08-08T10:11:44;6.63;;;2.50;;
35380;SDS011;21486;51.916;8.378;2023-08-08T10:14:11;5.88;;;2.20;;
35380;SDS011;21486;51.916;8.378;2023-08-08T10:16:39;6.93;;;1.90;;
35380;SDS011;21486;51.916;8.378;2023-08-08T10:19:08;6.00;;;1.90;;
35380;SDS011;21486;51.916;8.378;2023-08-08T10:21:35;6.72;;;1.88;;
35380;SDS011;21486;51.916;8.378;2023-08-08T10:24:06;8.98;;;1.90;;
35380;SDS011;21486;51.916;8.378;2023-08-08T10:26:33;6.63;;;2.00;;
35380;SDS011;21486;51.916;8.378;2023-08-08T10:29:17;4.83;;;1.70;;
35380;SDS011;21486;51.916;8.378;2023-08-08T10:31:50;3.78;;;1.60;;
35380;SDS011;21486;51.916;8.378;2023-08-08T10:34:19;3.65;;;1.60;;
35380;SDS011;21486;51.916;8.378;2023-08-08T10:36:50;5.97;;;1.57;;
35380;SDS011;21486;51.916;8.378;2023-08-08T10:39:18;5.40;;;1.60;;
35380;SDS011;21486;51.916;8.378;2023-08-08T10:41:46;3.08;;;1.30;;
35380;SDS011;21486;51.916;8.378;2023-08-08T10:44:13;3.17;;;1.50;;
35380;SDS011;21486;51.916;8.378;2023-08-08T10:46:45;3.78;;;1.60;;
35380;SDS011;21486;51.916;8.378;2023-08-08T10:49:11;4.17;;;1.80;;
35380;SDS011;21486;51.916;8.378;2023-08-08T10:51:39;4.47;;;1.83;;
35380;SDS011;21486;51.916;8.378;2023-08-08T10:54:14;6.47;;;1.83;;
35380;SDS011;21486;51.916;8.378;2023-08-08T10:56:52;5.68;;;1.83;;
35380;SDS011;21486;51.916;8.378;2023-08-08T10:59:20;3.73;;;1.67;;
35380;SDS011;21486;51.916;8.378;2023-08-08T11:02:00;6.28;;;1.60;;
35380;SDS011;21486;51.916;8.378;2023-08-08T11:04:26;5.55;;;1.55;;
35380;SDS011;21486;51.916;8.378;2023-08-08T11:06:54;5.65;;;1.80;;
35380;SDS011;21486;51.916;8.378;2023-08-08T11:09:20;3.45;;;1.30;;
35380;SDS011;21486;51.916;8.378;2023-08-08T11:11:46;3.85;;;1.50;;
35380;SDS011;21486;51.916;8.378;2023-08-08T11:14:13;4.13;;;1.43;;
35380;SDS011;21486;51.916;8.378;2023-08-08T11:16:40;3.22;;;1.38;;
35380;SDS011;21486;51.916;8.378;2023-08-08T11:19:10;3.05;;;1.20;;
35380;SDS011;21486;51.916;8.378;2023-08-08T11:21:37;3.92;;;1.13;;
35380;SDS011;21486;51.916;8.378;2023-08-08T11:24:10;4.82;;;1.30;;
35380;SDS011;21486;51.916;8.378;2023-08-08T11:26:37;2.47;;;1.05;;
35380;SDS011;21486;51.916;8.378;2023-08-08T11:29:04;2.90;;;0.90;;
35380;SDS011;21486;51.916;8.378;2023-08-08T11:31:34;2.50;;;1.00;;
35380;SDS011;21486;51.916;8.378;2023-08-08T11:33:59;2.47;;;1.00;;
35380;SDS011;21486;51.916;8.378;2023-08-08T11:36:26;5.10;;;0.93;;
35380;SDS011;21486;51.916;8.378;2023-08-08T11:38:54;3.70;;;1.08;;
35380;SDS011;21486;51.916;8.378;2023-08-08T11:41:22;2.10;;;1.10;;
35380;SDS011;21486;51.916;8.378;2023-08-08T11:43:49;4.53;;;1.05;;
35380;SDS011;21486;51.916;8.378;2023-08-08T11:46:15;4.00;;;1.50;;
35380;SDS011;21486;51.916;8.378;2023-08-08T11:48:42;3.95;;;1.20;;
35380;SDS011;21486;51.916;8.378;2023-08-08T11:51:08;2.30;;;0.93;;
35380;SDS011;21486;51.916;8.378;2023-08-08T11:53:35;1.73;;;0.80;;
35380;SDS011;21486;51.916;8.378;2023-08-08T11:56:01;3.08;;;1.00;;
35380;SDS011;21486;51.916;8.378;2023-08-08T11:58:28;3.60;;;0.98;;
35380;SDS011;21486;51.916;8.378;2023-08-08T12:00:55;2.87;;;0.97;;
35380;SDS011;21486;51.916;8.378;2023-08-08T12:03:22;3.58;;;1.50;;
35380;SDS011;21486;51.916;8.378;2023-08-08T12:05:49;2.33;;;1.00;;
35380;SDS011;21486;51.916;8.378;2023-08-08T12:08:19;3.13;;;1.17;;
35380;SDS011;21486;51.916;8.378;2023-08-08T12:10:49;2.92;;;1.02;;
35380;SDS011;21486;51.916;8.378;2023-08-08T12:13:21;2.53;;;1.00;;
35380;SDS011;21486;51.916;8.378;2023-08-08T12:15:53;2.03;;;0.90;;
35380;SDS011;21486;51.916;8.378;2023-08-08T12:18:19;6.70;;;1.00;;
35380;SDS011;21486;51.916;8.378;2023-08-08T12:20:45;3.88;;;0.98;;
35380;SDS011;21486;51.916;8.378;2023-08-08T12:23:11;4.15;;;1.10;;
35380;SDS011;21486;51.916;8.378;2023-08-08T12:25:42;2.67;;;0.90;;
35380;SDS011;21486;51.916;8.378;2023-08-08T12:28:08;2.50;;;0.80;;
35380;SDS011;21486;51.916;8.378;2023-08-08T12:30:33;3.03;;;0.83;;
35380;SDS011;21486;51.916;8.378;2023-08-08T12:33:00;2.80;;;1.05;;
35380;SDS011;21486;51.916;8.378;2023-08-08T12:35:25;2.70;;;0.90;;
35380;SDS011;21486;51.916;8.378;2023-08-08T12:37:52;2.97;;;1.10;;
35380;SDS011;21486;51.916;8.378;2023-08-08T12:40:18;3.10;;;1.00;;
35380;SDS011;21486;51.916;8.378;2023-08-08T12:42:43;1.40;;;0.80;;
35380;SDS011;21486;51.916;8.378;2023-08-08T12:45:09;2.80;;;0.85;;
35380;SDS011;21486;51.916;8.378;2023-08-08T12:47:35;2.17;;;0.63;;
35380;SDS011;21486;51.916;8.378;2023-08-08T12:50:03;3.17;;;0.90;;
35380;SDS011;21486;51.916;8.378;2023-08-08T12:52:32;2.78;;;0.85;;
35380;SDS011;21486;51.916;8.378;2023-08-08T12:54:58;1.30;;;0.80;;
35380;SDS011;21486;51.916;8.378;2023-08-08T12:57:24;2.10;;;0.90;;
35380;SDS011;21486;51.916;8.378;2023-08-08T12:59:50;2.90;;;0.93;;
35380;SDS011;21486;51.916;8.378;2023-08-08T13:02:15;3.00;;;1.05;;
35380;SDS011;21486;51.916;8.378;2023-08-08T13:04:41;2.90;;;0.75;;
35380;SDS011;21486;51.916;8.378;2023-08-08T13:07:07;2.40;;;0.83;;
35380;SDS011;21486;51.916;8.378;2023-08-08T13:09:32;5.18;;;0.98;;
35380;SDS011;21486;51.916;8.378;2023-08-08T13:14:26;2.25;;;0.90;;
35380;SDS011;21486;51.916;8.378;2023-08-08T13:16:51;1.95;;;0.85;;
35380;SDS011;21486;51.916;8.378;2023-08-08T13:19:17;2.33;;;1.00;;
35380;SDS011;21486;51.916;8.378;2023-08-08T13:21:46;3.30;;;0.80;;
35380;SDS011;21486;51.916;8.378;2023-08-08T13:24:11;2.10;;;0.70;;
35380;SDS011;21486;51.916;8.378;2023-08-08T13:26:38;2.67;;;1.13;;
35380;SDS011;21486;51.916;8.378;2023-08-08T13:29:04;2.92;;;1.10;;
35380;SDS011;21486;51.916;8.378;2023-08-08T13:31:30;3.95;;;1.13;;
35380;SDS011;21486;51.916;8.378;2023-08-08T13:33:55;2.35;;;1.15;;
35380;SDS011;21486;51.916;8.378;2023-08-08T13:36:21;4.13;;;1.20;;
35380;SDS011;21486;51.916;8.378;2023-08-08T13:38:46;6.05;;;1.27;;
35380;SDS011;21486;51.916;8.378;2023-08-08T13:41:12;3.83;;;1.10;;
35380;SDS011;21486;51.916;8.378;2023-08-08T13:43:38;3.80;;;1.38;;
35380;SDS011;21486;51.916;8.378;2023-08-08T13:46:03;2.38;;;1.10;;
35380;SDS011;21486;51.916;8.378;2023-08-08T13:48:32;2.00;;;0.90;;
35380;SDS011;21486;51.916;8.378;2023-08-08T13:50:59;3.15;;;1.13;;
35380;SDS011;21486;51.916;8.378;2023-08-08T13:53:24;2.53;;;1.08;;
35380;SDS011;21486;51.916;8.378;2023-08-08T13:55:50;2.10;;;1.00;;
35380;SDS011;21486;51.916;8.378;2023-08-08T13:58:16;2.90;;;1.10;;
35380;SDS011;21486;51.916;8.378;2023-08-08T14:00:41;4.50;;;1.20;;
35380;SDS011;21486;51.916;8.378;2023-08-08T14:03:07;1.80;;;0.80;;
35380;SDS011;21486;51.916;8.378;2023-08-08T14:05:33;3.10;;;0.97;;
35380;SDS011;21486;51.916;8.378;2023-08-08T14:07:59;7.37;;;1.50;;
35380;SDS011;21486;51.916;8.378;2023-08-08T14:10:24;2.65;;;1.08;;
35380;SDS011;21486;51.916;8.378;2023-08-08T14:12:50;2.10;;;0.80;;
35380;SDS011;21486;51.916;8.378;2023-08-08T14:15:15;2.90;;;0.93;;
35380;SDS011;21486;51.916;8.378;2023-08-08T14:17:41;2.67;;;1.23;;
35380;SDS011;21486;51.916;8.378;2023-08-08T14:20:07;4.30;;;1.10;;
35380;SDS011;21486;51.916;8.378;2023-08-08T14:22:33;4.60;;;1.40;;
35380;SDS011;21486;51.916;8.378;2023-08-08T14:24:59;3.40;;;1.00;;
35380;SDS011;21486;51.916;8.378;2023-08-08T14:27:25;3.40;;;1.20;;
35380;SDS011;21486;51.916;8.378;2023-08-08T14:29:50;2.33;;;0.90;;
35380;SDS011;21486;51.916;8.378;2023-08-08T14:32:16;1.73;;;0.80;;
35380;SDS011;21486;51.916;8.378;2023-08-08T14:34:42;3.03;;;1.10;;
35380;SDS011;21486;51.916;8.378;2023-08-08T14:37:07;3.33;;;1.17;;
35380;SDS011;21486;51.916;8.378;2023-08-08T14:39:33;2.73;;;1.20;;
35380;SDS011;21486;51.916;8.378;2023-08-08T14:41:59;2.93;;;1.10;;
35380;SDS011;21486;51.916;8.378;2023-08-08T14:44:24;4.67;;;1.20;;